Festina, Iowa
Current Conditions -  °F | °C
As of 12:35 AM on Monday 24 Nov 2014 (Local Time) from KDEH Reporting Station
Overcast Overcast  
Wind Chill: -2°   Ceiling: 800
Heat Index:   Visibility: 10mi
Dew Point:   Wind: 15mph
Humidity: 93%   Direction: 330°NNW
Pressure: 29.2"   Gusts: 23mph
Location:  43.1257°N, 91.9025°W
Report Text: KDEH 240635Z AUTO 33013G20KT 10SM OVC008 03/02 A2920 RMK AO2
Loading
Personal Weather Stations






























Interactive Weather Map New forecast layout! Learn more

10-Day Weather Forecast

Advertisements
Track Severe Weather on mobile